EXS53JL LEGE-EGCC
Flight info
| Callsign | EXS53JL |
|---|---|
| Flight time | 1h 54m |
| Altitude | 38000 |
| Route | GEANT DCT ROCAN DCT TOU DCT TUPAR UN861 ANG DCT AKIKI UN867 AVANT UM184 HEMEL T420 ELVOS |
| Aircraft | A321/M-SDE3FGHIRWY/LB1 |
Departure
| Time | 2026-04-24 20:18 |
|---|---|
| Airport | Girona-Costa Brava Airport (LEGE) |
Arrival
| Time | 2026-04-24 22:13 |
|---|---|
| Airport | Manchester Airport (EGCC) |
| Time | Latitude | Longitude | Altitude | Speed | Heading |
|---|---|---|---|---|---|
| 2026-04-24 20:01 | 41.89895 | 2.76494 | 421 ft | 0 kts | 103° |
| 2026-04-24 20:07 | 41.89895 | 2.76493 | 421 ft | 0 kts | 103° |
| 2026-04-24 20:09 | 41.89901 | 2.76469 | 417 ft | 4 kts | 98° |
| 2026-04-24 20:09 | 41.89896 | 2.76441 | 410 ft | 4 kts | 62° |
| 2026-04-24 20:10 | 41.89881 | 2.76413 | 415 ft | 4 kts | 38° |
| 2026-04-24 20:10 | 41.89858 | 2.76397 | 413 ft | 4 kts | 13° |
| 2026-04-24 20:10 | 41.89831 | 2.76390 | 413 ft | 3 kts | 13° |
| 2026-04-24 20:10 | 41.89827 | 2.76389 | 414 ft | 2 kts | 16° |
| 2026-04-24 20:12 | 41.89829 | 2.76390 | 421 ft | 1 kts | 16° |
| 2026-04-24 20:13 | 41.89841 | 2.76394 | 413 ft | 2 kts | 13° |
| 2026-04-24 20:13 | 41.89874 | 2.76387 | 420 ft | 8 kts | 334° |
| 2026-04-24 20:13 | 41.89898 | 2.76307 | 422 ft | 9 kts | 286° |
| 2026-04-24 20:13 | 41.89911 | 2.76250 | 418 ft | 5 kts | 296° |
| 2026-04-24 20:14 | 41.89961 | 2.76237 | 427 ft | 12 kts | 14° |
| 2026-04-24 20:14 | 41.90078 | 2.76281 | 432 ft | 23 kts | 17° |
| 2026-04-24 20:14 | 41.90248 | 2.76345 | 434 ft | 25 kts | 16° |
| 2026-04-24 20:14 | 41.90408 | 2.76408 | 436 ft | 23 kts | 16° |
| 2026-04-24 20:15 | 41.90555 | 2.76461 | 444 ft | 22 kts | 14° |
| 2026-04-24 20:15 | 41.90728 | 2.76527 | 452 ft | 28 kts | 16° |
| 2026-04-24 20:15 | 41.90901 | 2.76592 | 461 ft | 24 kts | 15° |
| 2026-04-24 20:15 | 41.91054 | 2.76650 | 463 ft | 22 kts | 16° |
| 2026-04-24 20:16 | 41.91197 | 2.76704 | 465 ft | 21 kts | 15° |
| 2026-04-24 20:16 | 41.91333 | 2.76756 | 467 ft | 19 kts | 16° |
| 2026-04-24 20:16 | 41.91447 | 2.76733 | 471 ft | 15 kts | 333° |
| 2026-04-24 20:16 | 41.91522 | 2.76674 | 474 ft | 10 kts | 317° |
| 2026-04-24 20:17 | 41.91537 | 2.76619 | 478 ft | 4 kts | 259° |
| 2026-04-24 20:17 | 41.91518 | 2.76598 | 473 ft | 1 kts | 199° |
| 2026-04-24 20:17 | 41.91412 | 2.76554 | 473 ft | 48 kts | 197° |
| 2026-04-24 20:18 | 41.91087 | 2.76430 | 471 ft | 97 kts | 195° |
| 2026-04-24 20:18 | 41.89875 | 2.75969 | 511 ft | 163 kts | 196° |
| 2026-04-24 20:18 | 41.88742 | 2.75535 | 998 ft | 170 kts | 196° |
| 2026-04-24 20:18 | 41.87614 | 2.75110 | 1714 ft | 167 kts | 197° |
| 2026-04-24 20:19 | 41.86502 | 2.74692 | 2331 ft | 169 kts | 197° |
| 2026-04-24 20:19 | 41.85295 | 2.74235 | 2610 ft | 191 kts | 197° |
| 2026-04-24 20:19 | 41.83932 | 2.73718 | 2907 ft | 214 kts | 197° |
| 2026-04-24 20:19 | 41.82549 | 2.72946 | 3575 ft | 219 kts | 221° |
| 2026-04-24 20:20 | 41.81776 | 2.71217 | 4277 ft | 222 kts | 263° |
| 2026-04-24 20:20 | 41.82052 | 2.69216 | 5022 ft | 223 kts | 304° |
| 2026-04-24 20:20 | 41.83243 | 2.67945 | 5745 ft | 224 kts | 343° |
| 2026-04-24 20:20 | 41.84782 | 2.67511 | 6520 ft | 227 kts | 350° |
| 2026-04-24 20:21 | 41.86340 | 2.67091 | 7281 ft | 230 kts | 349° |
| 2026-04-24 20:21 | 41.87919 | 2.66637 | 8014 ft | 234 kts | 349° |
| 2026-04-24 20:21 | 41.89516 | 2.66160 | 8777 ft | 236 kts | 348° |
| 2026-04-24 20:21 | 41.91104 | 2.65679 | 9572 ft | 238 kts | 348° |
| 2026-04-24 20:22 | 41.92750 | 2.65178 | 10347 ft | 241 kts | 348° |
| 2026-04-24 20:22 | 41.94366 | 2.64683 | 11065 ft | 243 kts | 348° |
| 2026-04-24 20:22 | 41.96042 | 2.64171 | 11825 ft | 245 kts | 347° |
| 2026-04-24 20:22 | 41.97710 | 2.63658 | 12573 ft | 247 kts | 347° |
| 2026-04-24 20:23 | 41.99392 | 2.63138 | 13325 ft | 249 kts | 347° |
| 2026-04-24 20:23 | 42.01068 | 2.62622 | 14049 ft | 252 kts | 347° |
| 2026-04-24 20:23 | 42.02810 | 2.62086 | 14705 ft | 255 kts | 347° |
| 2026-04-24 20:23 | 42.04527 | 2.61558 | 15348 ft | 258 kts | 347° |
| 2026-04-24 20:24 | 42.05712 | 2.61192 | 15780 ft | 260 kts | 347° |
| 2026-04-24 20:24 | 42.08049 | 2.60397 | 16647 ft | 264 kts | 339° |
| 2026-04-24 20:24 | 42.09699 | 2.59172 | 17104 ft | 277 kts | 322° |
| 2026-04-24 20:24 | 42.11229 | 2.57481 | 17246 ft | 300 kts | 321° |
| 2026-04-24 20:25 | 42.12891 | 2.55613 | 17378 ft | 322 kts | 321° |
| 2026-04-24 20:25 | 42.14671 | 2.53615 | 17519 ft | 344 kts | 321° |
| 2026-04-24 20:25 | 42.16563 | 2.51490 | 17649 ft | 364 kts | 321° |
| 2026-04-24 20:25 | 42.18559 | 2.49248 | 17781 ft | 382 kts | 321° |
| 2026-04-24 20:26 | 42.20648 | 2.46901 | 17907 ft | 399 kts | 321° |
| 2026-04-24 20:26 | 42.22827 | 2.44463 | 18044 ft | 414 kts | 321° |
| 2026-04-24 20:26 | 42.25086 | 2.41951 | 18195 ft | 427 kts | 321° |
| 2026-04-24 20:26 | 42.27401 | 2.39384 | 18584 ft | 434 kts | 321° |
| 2026-04-24 20:27 | 42.29743 | 2.36786 | 19029 ft | 437 kts | 321° |
| 2026-04-24 20:27 | 42.32100 | 2.34169 | 19490 ft | 440 kts | 321° |
| 2026-04-24 20:27 | 42.34477 | 2.31531 | 19945 ft | 443 kts | 321° |
| 2026-04-24 20:27 | 42.36861 | 2.28878 | 20404 ft | 446 kts | 321° |
| 2026-04-24 20:28 | 42.39265 | 2.26198 | 20819 ft | 450 kts | 321° |
| 2026-04-24 20:28 | 42.41681 | 2.23496 | 21290 ft | 452 kts | 321° |
| 2026-04-24 20:28 | 42.44112 | 2.20776 | 21710 ft | 455 kts | 321° |
| 2026-04-24 20:28 | 42.45734 | 2.18961 | 21977 ft | 458 kts | 321° |
| 2026-04-24 20:29 | 42.48194 | 2.16206 | 22417 ft | 460 kts | 321° |
| 2026-04-24 20:29 | 42.50665 | 2.13432 | 22861 ft | 463 kts | 321° |
| 2026-04-24 20:29 | 42.53151 | 2.10638 | 23263 ft | 465 kts | 321° |
| 2026-04-24 20:29 | 42.55649 | 2.07828 | 23700 ft | 468 kts | 321° |
| 2026-04-24 20:30 | 42.58166 | 2.05000 | 24057 ft | 471 kts | 321° |
| 2026-04-24 20:30 | 42.60696 | 2.02155 | 24395 ft | 474 kts | 321° |
| 2026-04-24 20:30 | 42.63239 | 1.99288 | 24735 ft | 476 kts | 321° |
| 2026-04-24 20:30 | 42.65800 | 1.96436 | 25087 ft | 477 kts | 323° |
| 2026-04-24 20:31 | 42.68574 | 1.93977 | 25523 ft | 475 kts | 332° |
| 2026-04-24 20:31 | 42.71545 | 1.92042 | 25980 ft | 473 kts | 336° |
| 2026-04-24 20:31 | 42.74532 | 1.90198 | 26449 ft | 471 kts | 335° |
| 2026-04-24 20:31 | 42.77520 | 1.88346 | 26800 ft | 473 kts | 335° |
| 2026-04-24 20:32 | 42.80516 | 1.86480 | 27210 ft | 473 kts | 335° |
| 2026-04-24 20:32 | 42.83503 | 1.84613 | 27650 ft | 472 kts | 335° |
| 2026-04-24 20:32 | 42.86486 | 1.82747 | 28087 ft | 471 kts | 335° |
| 2026-04-24 20:32 | 42.89457 | 1.80888 | 28539 ft | 470 kts | 335° |
| 2026-04-24 20:33 | 42.92428 | 1.79029 | 28986 ft | 469 kts | 335° |
| 2026-04-24 20:33 | 42.95386 | 1.77175 | 29430 ft | 468 kts | 335° |
| 2026-04-24 20:33 | 42.98308 | 1.75341 | 29860 ft | 467 kts | 335° |
| 2026-04-24 20:33 | 43.01258 | 1.73488 | 30285 ft | 466 kts | 334° |
| 2026-04-24 20:34 | 43.04203 | 1.71636 | 30683 ft | 465 kts | 334° |
| 2026-04-24 20:34 | 43.07144 | 1.69786 | 31077 ft | 464 kts | 334° |
| 2026-04-24 20:34 | 43.10075 | 1.67941 | 31451 ft | 463 kts | 334° |
| 2026-04-24 20:34 | 43.13002 | 1.66091 | 31851 ft | 462 kts | 334° |
| 2026-04-24 20:35 | 43.15919 | 1.64245 | 32237 ft | 461 kts | 334° |
| 2026-04-24 20:35 | 43.18831 | 1.62402 | 32636 ft | 461 kts | 334° |
| 2026-04-24 20:35 | 43.21741 | 1.60562 | 33034 ft | 460 kts | 334° |
| 2026-04-24 20:35 | 43.24645 | 1.58725 | 33446 ft | 459 kts | 334° |
| 2026-04-24 20:36 | 43.27511 | 1.56911 | 33863 ft | 458 kts | 334° |
| 2026-04-24 20:36 | 43.30401 | 1.55080 | 34250 ft | 457 kts | 334° |
| 2026-04-24 20:36 | 43.33286 | 1.53250 | 34603 ft | 456 kts | 334° |
| 2026-04-24 20:36 | 43.36161 | 1.51421 | 34916 ft | 456 kts | 334° |
| 2026-04-24 20:37 | 43.39046 | 1.49579 | 35215 ft | 457 kts | 334° |
| 2026-04-24 20:37 | 43.41924 | 1.47740 | 35549 ft | 456 kts | 334° |
| 2026-04-24 20:37 | 43.44796 | 1.45904 | 35912 ft | 454 kts | 334° |
| 2026-04-24 20:37 | 43.47660 | 1.44075 | 36283 ft | 453 kts | 334° |
| 2026-04-24 20:38 | 43.50520 | 1.42247 | 36620 ft | 452 kts | 334° |
| 2026-04-24 20:38 | 43.53367 | 1.40425 | 36968 ft | 450 kts | 334° |
| 2026-04-24 20:38 | 43.56204 | 1.38605 | 37287 ft | 449 kts | 334° |
| 2026-04-24 20:38 | 43.59035 | 1.36786 | 37616 ft | 448 kts | 334° |
| 2026-04-24 20:39 | 43.61860 | 1.34972 | 37944 ft | 447 kts | 334° |
| 2026-04-24 20:39 | 43.64683 | 1.33154 | 38118 ft | 448 kts | 334° |
| 2026-04-24 20:39 | 43.70316 | 1.29505 | 38138 ft | 447 kts | 333° |
| 2026-04-24 20:40 | 43.75892 | 1.25722 | 38132 ft | 446 kts | 332° |
| 2026-04-24 20:40 | 43.81447 | 1.21887 | 38124 ft | 446 kts | 332° |
| 2026-04-24 20:41 | 43.86977 | 1.18091 | 38115 ft | 446 kts | 332° |
| 2026-04-24 20:41 | 43.92540 | 1.14275 | 38110 ft | 447 kts | 332° |
| 2026-04-24 20:42 | 43.98112 | 1.10435 | 38112 ft | 447 kts | 332° |
| 2026-04-24 20:42 | 44.03687 | 1.06597 | 38116 ft | 448 kts | 332° |
| 2026-04-24 20:43 | 44.09276 | 1.02743 | 38118 ft | 448 kts | 332° |
| 2026-04-24 20:43 | 44.14854 | 0.98886 | 38119 ft | 448 kts | 332° |
| 2026-04-24 20:44 | 44.20432 | 0.95022 | 38119 ft | 448 kts | 332° |
| 2026-04-24 20:44 | 44.26015 | 0.91144 | 38125 ft | 448 kts | 332° |
| 2026-04-24 20:45 | 44.31593 | 0.87261 | 38118 ft | 448 kts | 332° |
| 2026-04-24 20:45 | 44.37174 | 0.83374 | 38118 ft | 448 kts | 332° |
| 2026-04-24 20:46 | 44.42749 | 0.79476 | 38122 ft | 448 kts | 331° |
| 2026-04-24 20:46 | 44.48323 | 0.75571 | 38122 ft | 448 kts | 332° |
| 2026-04-24 20:47 | 44.53903 | 0.71662 | 38119 ft | 449 kts | 332° |
| 2026-04-24 20:47 | 44.59490 | 0.67732 | 38121 ft | 449 kts | 331° |
| 2026-04-24 20:48 | 44.65073 | 0.63785 | 38126 ft | 449 kts | 331° |
| 2026-04-24 20:48 | 44.70654 | 0.59835 | 38131 ft | 449 kts | 331° |
| 2026-04-24 20:49 | 44.76245 | 0.55882 | 38133 ft | 449 kts | 331° |
| 2026-04-24 20:49 | 44.81834 | 0.51925 | 38134 ft | 449 kts | 331° |
| 2026-04-24 20:50 | 44.87381 | 0.47989 | 38135 ft | 449 kts | 331° |
| 2026-04-24 20:50 | 44.92965 | 0.44003 | 38133 ft | 449 kts | 331° |
| 2026-04-24 20:51 | 44.98546 | 0.40006 | 38129 ft | 449 kts | 331° |
| 2026-04-24 20:51 | 45.04122 | 0.36005 | 38125 ft | 449 kts | 331° |
| 2026-04-24 20:52 | 45.09703 | 0.32008 | 38123 ft | 449 kts | 331° |
| 2026-04-24 20:52 | 45.15285 | 0.28007 | 38120 ft | 449 kts | 331° |
| 2026-04-24 20:53 | 45.20860 | 0.23990 | 38121 ft | 449 kts | 331° |
| 2026-04-24 20:53 | 45.26435 | 0.19955 | 38119 ft | 450 kts | 330° |
| 2026-04-24 20:54 | 45.32015 | 0.15914 | 38124 ft | 450 kts | 331° |
| 2026-04-24 20:54 | 45.37593 | 0.11874 | 38125 ft | 450 kts | 330° |
| 2026-04-24 20:55 | 45.43164 | 0.07815 | 38124 ft | 450 kts | 330° |
| 2026-04-24 20:55 | 45.48709 | 0.03771 | 38119 ft | 450 kts | 330° |
| 2026-04-24 20:56 | 45.54287 | -0.00305 | 38125 ft | 450 kts | 330° |
| 2026-04-24 20:56 | 45.59865 | -0.04380 | 38136 ft | 451 kts | 330° |
| 2026-04-24 20:57 | 45.65454 | -0.08471 | 38122 ft | 451 kts | 330° |
| 2026-04-24 20:57 | 45.71043 | -0.12582 | 38120 ft | 452 kts | 330° |
| 2026-04-24 20:58 | 45.76632 | -0.16709 | 38120 ft | 452 kts | 330° |
| 2026-04-24 20:58 | 45.82222 | -0.20846 | 38108 ft | 452 kts | 330° |
| 2026-04-24 20:59 | 45.87810 | -0.24984 | 38123 ft | 452 kts | 330° |
| 2026-04-24 20:59 | 45.93405 | -0.29126 | 38113 ft | 452 kts | 330° |
| 2026-04-24 21:00 | 45.98998 | -0.33279 | 38113 ft | 452 kts | 330° |
| 2026-04-24 21:00 | 46.04585 | -0.37442 | 38128 ft | 452 kts | 330° |
| 2026-04-24 21:01 | 46.10171 | -0.41628 | 38112 ft | 452 kts | 330° |
| 2026-04-24 21:01 | 46.15757 | -0.45805 | 38118 ft | 452 kts | 330° |
| 2026-04-24 21:02 | 46.21342 | -0.49985 | 38122 ft | 452 kts | 330° |
| 2026-04-24 21:02 | 46.26928 | -0.54179 | 38117 ft | 452 kts | 330° |
| 2026-04-24 21:03 | 46.32506 | -0.58386 | 38115 ft | 452 kts | 330° |
| 2026-04-24 21:03 | 46.38073 | -0.62601 | 38129 ft | 452 kts | 330° |
| 2026-04-24 21:04 | 46.43872 | -0.66139 | 38133 ft | 455 kts | 343° |
| 2026-04-24 21:04 | 46.50118 | -0.67485 | 38136 ft | 458 kts | 351° |
| 2026-04-24 21:05 | 46.56450 | -0.68548 | 38130 ft | 458 kts | 351° |
| 2026-04-24 21:05 | 46.62779 | -0.69617 | 38139 ft | 458 kts | 351° |
| 2026-04-24 21:06 | 46.69108 | -0.70682 | 38140 ft | 458 kts | 351° |
| 2026-04-24 21:06 | 46.75438 | -0.71753 | 38144 ft | 457 kts | 351° |
| 2026-04-24 21:07 | 46.81764 | -0.72831 | 38144 ft | 457 kts | 351° |
| 2026-04-24 21:07 | 46.88093 | -0.73906 | 38142 ft | 457 kts | 351° |
| 2026-04-24 21:08 | 46.94415 | -0.74975 | 38140 ft | 457 kts | 351° |
| 2026-04-24 21:08 | 47.00740 | -0.76042 | 38146 ft | 457 kts | 351° |
| 2026-04-24 21:09 | 47.07058 | -0.77126 | 38148 ft | 457 kts | 351° |
| 2026-04-24 21:09 | 47.13335 | -0.78214 | 38148 ft | 457 kts | 351° |
| 2026-04-24 21:10 | 47.19652 | -0.79312 | 38157 ft | 457 kts | 351° |
| 2026-04-24 21:10 | 47.25971 | -0.80391 | 38153 ft | 457 kts | 351° |
| 2026-04-24 21:11 | 47.32290 | -0.81467 | 38151 ft | 457 kts | 351° |
| 2026-04-24 21:11 | 47.38602 | -0.82553 | 38153 ft | 457 kts | 351° |
| 2026-04-24 21:12 | 47.43858 | -0.83469 | 38157 ft | 457 kts | 351° |
| 2026-04-24 21:12 | 47.51249 | -0.84763 | 38147 ft | 458 kts | 351° |
| 2026-04-24 21:13 | 47.57522 | -0.86011 | 38144 ft | 457 kts | 348° |
| 2026-04-24 21:13 | 47.63776 | -0.87702 | 38154 ft | 457 kts | 347° |
| 2026-04-24 21:14 | 47.69011 | -0.89218 | 38154 ft | 457 kts | 347° |
| 2026-04-24 21:14 | 47.75265 | -0.90948 | 38154 ft | 458 kts | 347° |
| 2026-04-24 21:15 | 47.81541 | -0.92598 | 38181 ft | 458 kts | 348° |
| 2026-04-24 21:15 | 47.87814 | -0.94247 | 38167 ft | 458 kts | 347° |
| 2026-04-24 21:16 | 47.94041 | -0.95912 | 38167 ft | 458 kts | 347° |
| 2026-04-24 21:16 | 48.00308 | -0.97600 | 38169 ft | 458 kts | 347° |
| 2026-04-24 21:17 | 48.06574 | -0.99291 | 38178 ft | 457 kts | 347° |
| 2026-04-24 21:17 | 48.12841 | -1.00989 | 38175 ft | 457 kts | 347° |
| 2026-04-24 21:18 | 48.19102 | -1.02676 | 38178 ft | 457 kts | 347° |
| 2026-04-24 21:18 | 48.25364 | -1.04364 | 38188 ft | 457 kts | 347° |
| 2026-04-24 21:19 | 48.31636 | -1.06068 | 38184 ft | 458 kts | 347° |
| 2026-04-24 21:19 | 48.37915 | -1.07786 | 38182 ft | 458 kts | 347° |
| 2026-04-24 21:20 | 48.47285 | -1.10346 | 38191 ft | 458 kts | 347° |
| 2026-04-24 21:21 | 48.53551 | -1.12057 | 38193 ft | 458 kts | 347° |
| 2026-04-24 21:21 | 48.59825 | -1.13784 | 38199 ft | 458 kts | 347° |
| 2026-04-24 21:22 | 48.66095 | -1.15513 | 38208 ft | 458 kts | 347° |
| 2026-04-24 21:22 | 48.72360 | -1.17244 | 38204 ft | 458 kts | 347° |
| 2026-04-24 21:23 | 48.78631 | -1.18979 | 38201 ft | 458 kts | 347° |
| 2026-04-24 21:23 | 48.84906 | -1.20709 | 38208 ft | 458 kts | 347° |
| 2026-04-24 21:24 | 48.91172 | -1.22455 | 38211 ft | 458 kts | 347° |
| 2026-04-24 21:24 | 48.97447 | -1.24215 | 38205 ft | 458 kts | 347° |
| 2026-04-24 21:25 | 49.03673 | -1.25963 | 38209 ft | 458 kts | 347° |
| 2026-04-24 21:25 | 49.09946 | -1.27719 | 38216 ft | 458 kts | 347° |
| 2026-04-24 21:26 | 49.16215 | -1.29476 | 38216 ft | 458 kts | 347° |
| 2026-04-24 21:26 | 49.22488 | -1.31248 | 38216 ft | 458 kts | 347° |
| 2026-04-24 21:27 | 49.28751 | -1.33023 | 38220 ft | 458 kts | 347° |
| 2026-04-24 21:27 | 49.35022 | -1.34794 | 38221 ft | 459 kts | 347° |
| 2026-04-24 21:28 | 49.41169 | -1.36531 | 38220 ft | 460 kts | 347° |
| 2026-04-24 21:28 | 49.47470 | -1.38326 | 38224 ft | 460 kts | 347° |
| 2026-04-24 21:29 | 49.53721 | -1.40117 | 38235 ft | 460 kts | 347° |
| 2026-04-24 21:29 | 49.60070 | -1.41504 | 38234 ft | 463 kts | 357° |
| 2026-04-24 21:30 | 49.66528 | -1.41038 | 38234 ft | 465 kts | 1° |
| 2026-04-24 21:30 | 49.72986 | -1.40463 | 38235 ft | 465 kts | 1° |
| 2026-04-24 21:31 | 49.79452 | -1.39889 | 38240 ft | 465 kts | 1° |
| 2026-04-24 21:31 | 49.85910 | -1.39313 | 38238 ft | 465 kts | 1° |
| 2026-04-24 21:32 | 49.92376 | -1.38740 | 38236 ft | 465 kts | 1° |
| 2026-04-24 21:32 | 49.98843 | -1.38168 | 38241 ft | 465 kts | 1° |
| 2026-04-24 21:33 | 50.05262 | -1.36759 | 38235 ft | 466 kts | 7° |
| 2026-04-24 21:33 | 50.11658 | -1.35160 | 38246 ft | 465 kts | 7° |
| 2026-04-24 21:34 | 50.18049 | -1.33559 | 38253 ft | 465 kts | 7° |
| 2026-04-24 21:34 | 50.24432 | -1.31968 | 38260 ft | 464 kts | 7° |
| 2026-04-24 21:35 | 50.30809 | -1.30379 | 38248 ft | 464 kts | 7° |
| 2026-04-24 21:35 | 50.37177 | -1.28788 | 38254 ft | 463 kts | 7° |
| 2026-04-24 21:36 | 50.43496 | -1.27204 | 38264 ft | 463 kts | 7° |
| 2026-04-24 21:36 | 50.49794 | -1.25038 | 38257 ft | 465 kts | 18° |
| 2026-04-24 21:37 | 50.55526 | -1.20286 | 38258 ft | 468 kts | 31° |
| 2026-04-24 21:37 | 50.61031 | -1.14794 | 38257 ft | 468 kts | 31° |
| 2026-04-24 21:38 | 50.66538 | -1.09309 | 38267 ft | 468 kts | 30° |
| 2026-04-24 21:38 | 50.72044 | -1.03832 | 38267 ft | 468 kts | 30° |
| 2026-04-24 21:39 | 50.77542 | -0.98340 | 38265 ft | 467 kts | 31° |
| 2026-04-24 21:39 | 50.83192 | -0.93319 | 38268 ft | 464 kts | 19° |
| 2026-04-24 21:40 | 50.89245 | -0.90115 | 38288 ft | 461 kts | 15° |
| 2026-04-24 21:40 | 50.95340 | -0.86966 | 38287 ft | 460 kts | 15° |
| 2026-04-24 21:41 | 51.01412 | -0.83821 | 38291 ft | 458 kts | 15° |
| 2026-04-24 21:41 | 51.07475 | -0.80665 | 38294 ft | 458 kts | 15° |
| 2026-04-24 21:42 | 51.13523 | -0.77508 | 38294 ft | 457 kts | 15° |
| 2026-04-24 21:42 | 51.19571 | -0.74340 | 38297 ft | 457 kts | 16° |
| 2026-04-24 21:43 | 51.25624 | -0.71167 | 38293 ft | 457 kts | 15° |
| 2026-04-24 21:43 | 51.31666 | -0.67993 | 38293 ft | 457 kts | 16° |
| 2026-04-24 21:44 | 51.37707 | -0.64808 | 38302 ft | 457 kts | 15° |
| 2026-04-24 21:44 | 51.43736 | -0.61613 | 38297 ft | 456 kts | 15° |
| 2026-04-24 21:45 | 51.49764 | -0.58411 | 38293 ft | 456 kts | 15° |
| 2026-04-24 21:45 | 51.55797 | -0.55220 | 38295 ft | 456 kts | 15° |
| 2026-04-24 21:46 | 51.61825 | -0.52014 | 38304 ft | 456 kts | 15° |
| 2026-04-24 21:46 | 51.67850 | -0.48782 | 38300 ft | 456 kts | 15° |
| 2026-04-24 21:47 | 51.73882 | -0.45601 | 38292 ft | 455 kts | 11° |
| 2026-04-24 21:47 | 51.80101 | -0.44810 | 38295 ft | 446 kts | 351° |
| 2026-04-24 21:48 | 51.86003 | -0.47403 | 38304 ft | 438 kts | 332° |
| 2026-04-24 21:48 | 51.91240 | -0.52334 | 38287 ft | 436 kts | 326° |
| 2026-04-24 21:48 | 51.93804 | -0.54841 | 37902 ft | 436 kts | 326° |
| 2026-04-24 21:49 | 51.96407 | -0.57381 | 36731 ft | 438 kts | 326° |
| 2026-04-24 21:49 | 51.99020 | -0.59928 | 35926 ft | 438 kts | 326° |
| 2026-04-24 21:49 | 52.01643 | -0.62484 | 35082 ft | 441 kts | 326° |
| 2026-04-24 21:49 | 52.04277 | -0.65058 | 34216 ft | 443 kts | 326° |
| 2026-04-24 21:50 | 52.06911 | -0.67638 | 33602 ft | 438 kts | 326° |
| 2026-04-24 21:50 | 52.09510 | -0.70186 | 32997 ft | 433 kts | 326° |
| 2026-04-24 21:50 | 52.12075 | -0.72708 | 32421 ft | 429 kts | 326° |
| 2026-04-24 21:50 | 52.14620 | -0.75222 | 31848 ft | 425 kts | 326° |
| 2026-04-24 21:51 | 52.17136 | -0.77709 | 31284 ft | 421 kts | 326° |
| 2026-04-24 21:51 | 52.19627 | -0.80171 | 30754 ft | 417 kts | 326° |
| 2026-04-24 21:51 | 52.22098 | -0.82611 | 30171 ft | 413 kts | 326° |
| 2026-04-24 21:51 | 52.24539 | -0.85025 | 29612 ft | 407 kts | 326° |
| 2026-04-24 21:52 | 52.26943 | -0.87407 | 29091 ft | 401 kts | 326° |
| 2026-04-24 21:52 | 52.29309 | -0.89758 | 28599 ft | 396 kts | 326° |
| 2026-04-24 21:52 | 52.31643 | -0.92084 | 28083 ft | 390 kts | 326° |
| 2026-04-24 21:52 | 52.33945 | -0.94382 | 27604 ft | 385 kts | 326° |
| 2026-04-24 21:53 | 52.36208 | -0.96641 | 27134 ft | 379 kts | 326° |
| 2026-04-24 21:53 | 52.38441 | -0.98874 | 26686 ft | 373 kts | 326° |
| 2026-04-24 21:53 | 52.40642 | -1.01070 | 26235 ft | 368 kts | 326° |
| 2026-04-24 21:53 | 52.42811 | -1.03235 | 25804 ft | 362 kts | 326° |
| 2026-04-24 21:54 | 52.44946 | -1.05372 | 25391 ft | 357 kts | 325° |
| 2026-04-24 21:54 | 52.47023 | -1.07456 | 24985 ft | 352 kts | 325° |
| 2026-04-24 21:54 | 52.49120 | -1.09563 | 24573 ft | 347 kts | 325° |
| 2026-04-24 21:54 | 52.51170 | -1.11626 | 24166 ft | 343 kts | 325° |
| 2026-04-24 21:55 | 52.53192 | -1.13668 | 23758 ft | 340 kts | 326° |
| 2026-04-24 21:55 | 52.55174 | -1.15670 | 23309 ft | 336 kts | 326° |
| 2026-04-24 21:55 | 52.57156 | -1.17670 | 22906 ft | 334 kts | 326° |
| 2026-04-24 21:55 | 52.59133 | -1.19665 | 22505 ft | 333 kts | 327° |
| 2026-04-24 21:56 | 52.61101 | -1.21652 | 22109 ft | 332 kts | 327° |
| 2026-04-24 21:56 | 52.63069 | -1.23641 | 21685 ft | 331 kts | 327° |
| 2026-04-24 21:56 | 52.65030 | -1.25626 | 21276 ft | 331 kts | 327° |
| 2026-04-24 21:56 | 52.66988 | -1.27613 | 20862 ft | 330 kts | 327° |
| 2026-04-24 21:57 | 52.68944 | -1.29596 | 20440 ft | 330 kts | 328° |
| 2026-04-24 21:57 | 52.70904 | -1.31583 | 20029 ft | 332 kts | 328° |
| 2026-04-24 21:57 | 52.72935 | -1.33644 | 19597 ft | 349 kts | 328° |
| 2026-04-24 21:57 | 52.75019 | -1.35765 | 19196 ft | 353 kts | 329° |
| 2026-04-24 21:58 | 52.77108 | -1.37898 | 18739 ft | 353 kts | 328° |
| 2026-04-24 21:58 | 52.79198 | -1.40034 | 18259 ft | 353 kts | 328° |
| 2026-04-24 21:58 | 52.81280 | -1.42160 | 17796 ft | 350 kts | 328° |
| 2026-04-24 21:58 | 52.83342 | -1.44269 | 17351 ft | 348 kts | 328° |
| 2026-04-24 21:59 | 52.85392 | -1.46366 | 16920 ft | 345 kts | 328° |
| 2026-04-24 21:59 | 52.87425 | -1.48450 | 16490 ft | 342 kts | 328° |
| 2026-04-24 21:59 | 52.89441 | -1.50523 | 16044 ft | 340 kts | 328° |
| 2026-04-24 21:59 | 52.91445 | -1.52587 | 15611 ft | 338 kts | 328° |
| 2026-04-24 22:00 | 52.92768 | -1.53949 | 15327 ft | 338 kts | 328° |
| 2026-04-24 22:00 | 52.94753 | -1.55997 | 14905 ft | 335 kts | 328° |
| 2026-04-24 22:00 | 52.96730 | -1.58036 | 14471 ft | 333 kts | 328° |
| 2026-04-24 22:00 | 52.98693 | -1.60061 | 14049 ft | 331 kts | 328° |
| 2026-04-24 22:01 | 53.00642 | -1.62072 | 13591 ft | 328 kts | 328° |
| 2026-04-24 22:01 | 53.02568 | -1.64066 | 13175 ft | 324 kts | 328° |
| 2026-04-24 22:01 | 53.04470 | -1.66061 | 12761 ft | 321 kts | 325° |
| 2026-04-24 22:01 | 53.06154 | -1.68467 | 12349 ft | 318 kts | 313° |
| 2026-04-24 22:02 | 53.07593 | -1.71249 | 11955 ft | 316 kts | 310° |
| 2026-04-24 22:02 | 53.08993 | -1.73972 | 11798 ft | 304 kts | 311° |
| 2026-04-24 22:02 | 53.10349 | -1.76593 | 11585 ft | 295 kts | 311° |
| 2026-04-24 22:02 | 53.11679 | -1.79161 | 11316 ft | 291 kts | 311° |
| 2026-04-24 22:03 | 53.12993 | -1.81703 | 10982 ft | 289 kts | 311° |
| 2026-04-24 22:03 | 53.14432 | -1.84054 | 10362 ft | 295 kts | 327° |
| 2026-04-24 22:03 | 53.16285 | -1.85363 | 10132 ft | 285 kts | 345° |
| 2026-04-24 22:03 | 53.18161 | -1.86219 | 9784 ft | 281 kts | 345° |
| 2026-04-24 22:04 | 53.20022 | -1.87056 | 9221 ft | 275 kts | 345° |
| 2026-04-24 22:04 | 53.21853 | -1.87874 | 8847 ft | 268 kts | 345° |
| 2026-04-24 22:04 | 53.23622 | -1.88663 | 8458 ft | 259 kts | 345° |
| 2026-04-24 22:04 | 53.25329 | -1.89424 | 8110 ft | 249 kts | 345° |
| 2026-04-24 22:05 | 53.26976 | -1.90159 | 7762 ft | 243 kts | 345° |
| 2026-04-24 22:05 | 53.28612 | -1.90891 | 7419 ft | 243 kts | 345° |
| 2026-04-24 22:05 | 53.30249 | -1.91626 | 7077 ft | 244 kts | 345° |
| 2026-04-24 22:05 | 53.31886 | -1.92358 | 6736 ft | 244 kts | 345° |
| 2026-04-24 22:06 | 53.33513 | -1.93087 | 6416 ft | 241 kts | 345° |
| 2026-04-24 22:06 | 53.35132 | -1.93814 | 6049 ft | 240 kts | 345° |
| 2026-04-24 22:06 | 53.36731 | -1.94533 | 5704 ft | 235 kts | 345° |
| 2026-04-24 22:06 | 53.38292 | -1.95234 | 5394 ft | 229 kts | 345° |
| 2026-04-24 22:07 | 53.39814 | -1.95917 | 5096 ft | 224 kts | 346° |
| 2026-04-24 22:07 | 53.41305 | -1.96586 | 4787 ft | 220 kts | 346° |
| 2026-04-24 22:07 | 53.42752 | -1.97237 | 4503 ft | 209 kts | 346° |
| 2026-04-24 22:07 | 53.44115 | -1.97853 | 4203 ft | 197 kts | 346° |
| 2026-04-24 22:08 | 53.45410 | -1.98462 | 3949 ft | 191 kts | 342° |
| 2026-04-24 22:08 | 53.46460 | -1.99754 | 3780 ft | 190 kts | 308° |
| 2026-04-24 22:08 | 53.46931 | -2.01823 | 3692 ft | 193 kts | 276° |
| 2026-04-24 22:08 | 53.46648 | -2.03973 | 3543 ft | 195 kts | 240° |
| 2026-04-24 22:09 | 53.45830 | -2.05774 | 3322 ft | 193 kts | 231° |
| 2026-04-24 22:09 | 53.44986 | -2.07514 | 3065 ft | 190 kts | 230° |
| 2026-04-24 22:09 | 53.44160 | -2.09229 | 2813 ft | 188 kts | 230° |
| 2026-04-24 22:09 | 53.43353 | -2.10912 | 2580 ft | 178 kts | 230° |
| 2026-04-24 22:10 | 53.42599 | -2.12482 | 2347 ft | 168 kts | 230° |
| 2026-04-24 22:10 | 53.41877 | -2.13988 | 2120 ft | 164 kts | 230° |
| 2026-04-24 22:10 | 53.41166 | -2.15466 | 1893 ft | 162 kts | 230° |
| 2026-04-24 22:10 | 53.40498 | -2.16855 | 1648 ft | 145 kts | 229° |
| 2026-04-24 22:11 | 53.39884 | -2.18122 | 1395 ft | 137 kts | 229° |
| 2026-04-24 22:11 | 53.39288 | -2.19348 | 1288 ft | 135 kts | 229° |
| 2026-04-24 22:11 | 53.38702 | -2.20571 | 1112 ft | 134 kts | 229° |
| 2026-04-24 22:11 | 53.38115 | -2.21785 | 937 ft | 134 kts | 230° |
| 2026-04-24 22:12 | 53.37531 | -2.23003 | 745 ft | 134 kts | 229° |
| 2026-04-24 22:12 | 53.36948 | -2.24215 | 574 ft | 134 kts | 229° |
| 2026-04-24 22:12 | 53.36367 | -2.25430 | 386 ft | 133 kts | 230° |
| 2026-04-24 22:12 | 53.35787 | -2.26623 | 273 ft | 126 kts | 232° |
| 2026-04-24 22:13 | 53.35332 | -2.27574 | 243 ft | 78 kts | 231° |
| 2026-04-24 22:13 | 53.35099 | -2.28063 | 233 ft | 29 kts | 231° |
| 2026-04-24 22:13 | 53.35033 | -2.28215 | 232 ft | 14 kts | 236° |
| 2026-04-24 22:13 | 53.34984 | -2.28372 | 232 ft | 15 kts | 248° |
| 2026-04-24 22:14 | 53.34952 | -2.28545 | 230 ft | 16 kts | 258° |
| 2026-04-24 22:14 | 53.34941 | -2.28666 | 228 ft | 9 kts | 269° |
| 2026-04-24 22:14 | 53.34973 | -2.28744 | 228 ft | 9 kts | 328° |
| 2026-04-24 22:14 | 53.35024 | -2.28714 | 229 ft | 8 kts | 40° |
| 2026-04-24 22:15 | 53.35061 | -2.28657 | 229 ft | 7 kts | 50° |
| 2026-04-24 22:15 | 53.35098 | -2.28578 | 229 ft | 13 kts | 52° |
| 2026-04-24 22:15 | 53.35166 | -2.28435 | 228 ft | 16 kts | 51° |
| 2026-04-24 22:15 | 53.35232 | -2.28301 | 232 ft | 17 kts | 46° |
| 2026-04-24 22:16 | 53.35353 | -2.28180 | 235 ft | 19 kts | 14° |
| 2026-04-24 22:16 | 53.35460 | -2.28141 | 236 ft | 16 kts | 12° |
| 2026-04-24 22:16 | 53.35557 | -2.28038 | 237 ft | 16 kts | 49° |
| 2026-04-24 22:16 | 53.35625 | -2.27917 | 241 ft | 13 kts | 32° |
| 2026-04-24 22:17 | 53.35698 | -2.27884 | 245 ft | 9 kts | 6° |
| 2026-04-24 22:17 | 53.35745 | -2.27875 | 247 ft | 5 kts | 6° |
| 2026-04-24 22:17 | 53.35772 | -2.27870 | 249 ft | 3 kts | 6° |
| 2026-04-24 22:17 | 53.35815 | -2.27862 | 251 ft | 14 kts | 6° |
| 2026-04-24 22:18 | 53.35922 | -2.27849 | 255 ft | 15 kts | 355° |
| 2026-04-24 22:18 | 53.36015 | -2.27926 | 255 ft | 15 kts | 317° |
| 2026-04-24 22:18 | 53.36093 | -2.28050 | 255 ft | 16 kts | 316° |
| 2026-04-24 22:18 | 53.36172 | -2.28178 | 255 ft | 16 kts | 315° |
| 2026-04-24 22:19 | 53.36252 | -2.28310 | 255 ft | 16 kts | 315° |
| 2026-04-24 22:19 | 53.36333 | -2.28443 | 255 ft | 16 kts | 319° |
| 2026-04-24 22:19 | 53.36435 | -2.28530 | 255 ft | 17 kts | 330° |
| 2026-04-24 22:19 | 53.36522 | -2.28658 | 255 ft | 17 kts | 315° |
| 2026-04-24 22:20 | 53.36606 | -2.28773 | 255 ft | 15 kts | 344° |
| 2026-04-24 22:20 | 53.36700 | -2.28715 | 255 ft | 15 kts | 41° |
| 2026-04-24 22:20 | 53.36773 | -2.28600 | 255 ft | 9 kts | 44° |
| 2026-04-24 22:20 | 53.36813 | -2.28545 | 255 ft | 5 kts | 15° |
| 2026-04-24 22:21 | 53.36846 | -2.28573 | 255 ft | 5 kts | 320° |
| 2026-04-24 22:21 | 53.36860 | -2.28597 | 255 ft | 0 kts | 315° |